Wetterdaten: aktuell Montag, 21.01.2019 02:50
Datum Zeit Temp. Feuchte Luftdruck Regen Wind Richtung Richtung Sonnenschein UV Solar Windchill Windben
21.01.2019 02:50 -1.2 C 93 % 1020.6 hPa 0.0 mm 0.0 km/h O-NO 61 0 min 0.0 UV-I 0.0 W/m -1.2 C 0.0 km/h
21.01.2019 02:40 -1.2 C 93 % 1020.6 hPa 0.0 mm 0.0 km/h O-NO 61 0 min 0.0 UV-I 0.0 W/m -1.2 C 0.0 km/h
21.01.2019 02:30 -1.3 C 94 % 1020.5 hPa 0.0 mm 0.0 km/h O-NO 61 0 min 0.0 UV-I 0.0 W/m -1.3 C 0.0 km/h
21.01.2019 02:20 -1.4 C 94 % 1020.5 hPa 0.0 mm 0.0 km/h O-NO 61 0 min 0.0 UV-I 0.0 W/m -1.4 C 0.0 km/h
21.01.2019 02:10 -1.5 C 94 % 1020.4 hPa 0.0 mm 0.0 km/h O-NO 61 0 min 0.0 UV-I 0.0 W/m -1.5 C 0.0 km/h
21.01.2019 02:00 -1.4 C 94 % 1020.4 hPa 0.0 mm 0.0 km/h O-NO 61 0 min 0.0 UV-I 0.0 W/m -1.4 C 0.0 km/h
21.01.2019 01:50 -1.6 C 95 % 1020.3 hPa 0.0 mm 0.0 km/h O-NO 61 0 min 0.0 UV-I 0.0 W/m -1.6 C 0.0 km/h
21.01.2019 01:40 -1.7 C 94 % 1020.3 hPa 0.0 mm 0.2 km/h O-NO 61 0 min 0.0 UV-I 0.0 W/m -1.7 C 3.2 km/h
21.01.2019 01:30 -1.7 C 94 % 1020.4 hPa 0.0 mm 0.4 km/h O-NO 61 0 min 0.0 UV-I 0.0 W/m -1.7 C 3.2 km/h
21.01.2019 01:20 -1.7 C 94 % 1020.3 hPa 0.0 mm 1.1 km/h O-NO 61 0 min 0.0 UV-I 0.0 W/m -1.7 C 3.2 km/h
21.01.2019 01:10 -1.7 C 94 % 1020.3 hPa 0.0 mm 1.9 km/h O-NO 61 0 min 0.0 UV-I 0.0 W/m -1.7 C 3.2 km/h
21.01.2019 01:00 -1.4 C 93 % 1020.4 hPa 0.0 mm 0.5 km/h O-NO 61 0 min 0.0 UV-I 0.0 W/m -1.4 C 3.2 km/h
21.01.2019 00:50 -1.1 C 93 % 1020.4 hPa 0.0 mm 1.4 km/h O-NO 61 0 min 0.0 UV-I 0.0 W/m -1.1 C 3.2 km/h
21.01.2019 00:40 -0.7 C 93 % 1020.3 hPa 0.0 mm 0.5 km/h O-NO 61 0 min 0.0 UV-I 0.0 W/m -0.7 C 3.2 km/h
21.01.2019 00:30 -0.4 C 92 % 1020.4 hPa 0.0 mm 0.0 km/h O-NO 61 0 min 0.0 UV-I 0.0 W/m -0.4 C 0.0 km/h
21.01.2019 00:20 -0.5 C 93 % 1020.4 hPa 0.0 mm 0.0 km/h O-NO 61 0 min 0.0 UV-I 0.0 W/m -0.5 C 0.0 km/h
21.01.2019 00:10 -0.6 C 93 % 1020.3 hPa 0.0 mm 0.0 km/h O-NO 61 0 min 0.0 UV-I 0.0 W/m -0.6 C 0.0 km/h
21.01.2019 00:00 -0.6 C 93 % 1020.2 hPa 0.0 mm 0.0 km/h O-NO 61 0 min 0.0 UV-I 0.0 W/m -0.6 C 0.0 km/h
20.01.2019 23:50 -0.7 C 93 % 1020.3 hPa 0.0 mm 0.0 km/h O-NO 61 0 min 0.0 UV-I 0.0 W/m -0.7 C 0.0 km/h
20.01.2019 23:40 -0.6 C 93 % 1020.2 hPa 0.0 mm 0.0 km/h O-NO 61 0 min 0.0 UV-I 0.0 W/m -0.6 C 0.0 km/h
20.01.2019 23:30 -0.5 C 93 % 1020.3 hPa 0.0 mm 0.0 km/h O-NO 61 0 min 0.0 UV-I 0.0 W/m -0.5 C 0.0 km/h
20.01.2019 23:20 -0.5 C 93 % 1020.0 hPa 0.0 mm 0.0 km/h O-NO 61 0 min 0.0 UV-I 0.0 W/m -0.5 C 0.0 km/h
20.01.2019 23:10 -0.4 C 93 % 1020.0 hPa 0.0 mm 0.0 km/h O-NO 61 0 min 0.0 UV-I 0.0 W/m -0.4 C 0.0 km/h
20.01.2019 23:00 -0.5 C 93 % 1019.9 hPa 0.0 mm 0.4 km/h O-NO 61 0 min 0.0 UV-I 0.0 W/m -0.5 C 3.2 km/h
20.01.2019 22:50 -0.6 C 93 % 1019.9 hPa 0.0 mm 1.2 km/h O-NO 61 0 min 0.0 UV-I 0.0 W/m -0.6 C 4.8 km/h
20.01.2019 22:40 -0.6 C 93 % 1019.8 hPa 0.0 mm 1.7 km/h O-NO 61 0 min 0.0 UV-I 0.0 W/m -0.6 C 4.8 km/h
20.01.2019 22:30 -0.6 C 93 % 1019.7 hPa 0.0 mm 0.1 km/h O-NO 61 0 min 0.0 UV-I 0.0 W/m -0.6 C 3.2 km/h
20.01.2019 22:20 -0.6 C 93 % 1019.7 hPa 0.0 mm 0.0 km/h O-NO 61 0 min 0.0 UV-I 0.0 W/m -0.6 C 0.0 km/h
20.01.2019 22:10 -0.6 C 93 % 1019.5 hPa 0.0 mm 0.0 km/h O-NO 61 0 min 0.0 UV-I 0.0 W/m -0.6 C 0.0 km/h
20.01.2019 22:00 -0.6 C 93 % 1019.5 hPa 0.0 mm 0.0 km/h O-NO 61 0 min 0.0 UV-I 0.0 W/m -0.6 C 0.0 km/h
20.01.2019 21:50 -0.6 C 93 % 1019.5 hPa 0.0 mm 0.0 km/h O-NO 61 0 min 0.0 UV-I 0.0 W/m -0.6 C 0.0 km/h
20.01.2019 21:40 -0.5 C 92 % 1019.4 hPa 0.0 mm 1.3 km/h O-NO 61 0 min 0.0 UV-I 0.0 W/m -0.5 C 6.4 km/h
20.01.2019 21:30 -0.4 C 92 % 1019.4 hPa 0.0 mm 3.2 km/h O-NO 61 0 min 0.0 UV-I 0.0 W/m -0.4 C 6.4 km/h
20.01.2019 21:20 -0.4 C 91 % 1019.3 hPa 0.0 mm 1.9 km/h O-NO 69 0 min 0.0 UV-I 0.0 W/m -0.4 C 6.4 km/h
20.01.2019 21:10 -0.4 C 91 % 1019.3 hPa 0.0 mm 0.2 km/h NO 54 0 min 0.0 UV-I 0.0 W/m -0.4 C 1.6 km/h
20.01.2019 21:00 -0.4 C 90 % 1019.2 hPa 0.0 mm 0.1 km/h NO 54 0 min 0.0 UV-I 0.0 W/m -0.4 C 1.6 km/h
20.01.2019 20:50 -0.3 C 90 % 1019.1 hPa 0.0 mm 0.0 km/h NO 54 0 min 0.0 UV-I 0.0 W/m -0.3 C 0.0 km/h
20.01.2019 20:40 -0.2 C 89 % 1019.0 hPa 0.0 mm 0.0 km/h NO 54 0 min 0.0 UV-I 0.0 W/m -0.2 C 1.6 km/h
20.01.2019 20:30 -0.2 C 89 % 1019.0 hPa 0.0 mm 0.5 km/h NO 54 0 min 0.0 UV-I 0.0 W/m -0.2 C 3.2 km/h
20.01.2019 20:20 -0.2 C 89 % 1019.0 hPa 0.0 mm 1.0 km/h NO 54 0 min 0.0 UV-I 0.0 W/m -0.2 C 3.2 km/h
20.01.2019 20:10 -0.2 C 89 % 1018.9 hPa 0.0 mm 0.4 km/h NO 54 0 min 0.0 UV-I 0.0 W/m -0.2 C 1.6 km/h
20.01.2019 20:00 -0.4 C 90 % 1018.9 hPa 0.0 mm 0.0 km/h NO 54 0 min 0.0 UV-I 0.0 W/m -0.4 C 0.0 km/h
20.01.2019 19:50 -0.3 C 89 % 1018.9 hPa 0.0 mm 0.1 km/h NO 54 0 min 0.0 UV-I 0.0 W/m -0.3 C 1.6 km/h
20.01.2019 19:40 -0.2 C 88 % 1018.9 hPa 0.0 mm 0.1 km/h NO 54 0 min 0.0 UV-I 0.0 W/m -0.2 C 1.6 km/h
20.01.2019 19:30 -0.3 C 88 % 1018.6 hPa 0.0 mm 0.0 km/h NO 54 0 min 0.0 UV-I 0.0 W/m -0.3 C 0.0 km/h
20.01.2019 19:20 -0.3 C 88 % 1018.5 hPa 0.0 mm 0.1 km/h NO 54 0 min 0.0 UV-I 0.0 W/m -0.3 C 1.6 km/h
20.01.2019 19:10 -0.4 C 88 % 1018.4 hPa 0.0 mm 0.3 km/h NO 54 0 min 0.0 UV-I 0.0 W/m -0.4 C 3.2 km/h
20.01.2019 19:00 -0.4 C 88 % 1018.3 hPa 0.0 mm 0.9 km/h NO 54 0 min 0.0 UV-I 0.0 W/m -0.4 C 3.2 km/h
20.01.2019 18:50 -0.4 C 89 % 1018.1 hPa 0.0 mm 0.9 km/h NO 54 0 min 0.0 UV-I 0.0 W/m -0.4 C 4.8 km/h
20.01.2019 18:40 -0.4 C 89 % 1018.0 hPa 0.0 mm 0.8 km/h NO 54 0 min 0.0 UV-I 0.0 W/m -0.4 C 3.2 km/h
20.01.2019 18:30 -0.4 C 89 % 1017.9 hPa 0.0 mm 0.5 km/h NO 54 0 min 0.0 UV-I 0.0 W/m -0.4 C 3.2 km/h
20.01.2019 18:20 -0.4 C 89 % 1017.8 hPa 0.0 mm 0.2 km/h NO 54 0 min 0.0 UV-I 0.0 W/m -0.4 C 1.6 km/h
20.01.2019 18:10 -0.4 C 88 % 1017.7 hPa 0.0 mm 0.0 km/h NO 54 0 min 0.0 UV-I 0.0 W/m -0.4 C 0.0 km/h
20.01.2019 18:00 -0.2 C 88 % 1017.6 hPa 0.0 mm 0.0 km/h NO 54 0 min 0.0 UV-I 0.0 W/m -0.2 C 0.0 km/h
20.01.2019 17:50 -0.1 C 87 % 1017.6 hPa 0.0 mm 0.0 km/h NO 54 0 min 0.0 UV-I 0.0 W/m -0.1 C 0.0 km/h
20.01.2019 17:40 -0.2 C 88 % 1017.7 hPa 0.0 mm 0.0 km/h NO 54 0 min 0.0 UV-I 0.0 W/m -0.2 C 0.0 km/h
20.01.2019 17:30 -0.1 C 87 % 1017.5 hPa 0.0 mm 0.0 km/h NO 54 0 min 0.0 UV-I 0.0 W/m -0.1 C 1.6 km/h
20.01.2019 17:20 0.0 C 87 % 1017.4 hPa 0.0 mm 0.0 km/h NO 54 0 min 0.0 UV-I 0.0 W/m 0.0 C 0.0 km/h
20.01.2019 17:10 0.2 C 85 % 1017.4 hPa 0.0 mm 0.0 km/h NO 54 0 min 0.0 UV-I 0.0 W/m 0.2 C 0.0 km/h
20.01.2019 17:00 0.2 C 86 % 1017.3 hPa 0.0 mm 0.3 km/h NO 54 0 min 0.0 UV-I 0.0 W/m 0.2 C 1.6 km/h
20.01.2019 16:50 0.4 C 85 % 1017.3 hPa 0.0 mm 0.0 km/h NO 54 0 min 0.0 UV-I 9.0 W/m 0.4 C 1.6 km/h
20.01.2019 16:40 0.7 C 83 % 1017.3 hPa 0.0 mm 0.0 km/h NO 54 0 min 0.0 UV-I 14.0 W/m 0.7 C 0.0 km/h
20.01.2019 16:30 0.8 C 83 % 1017.2 hPa 0.0 mm 0.0 km/h NO 54 0 min 0.0 UV-I 23.0 W/m 0.8 C 1.6 km/h
20.01.2019 16:20 0.8 C 83 % 1017.2 hPa 0.0 mm 0.5 km/h NO 54 0 min 0.0 UV-I 35.0 W/m 0.8 C 1.6 km/h
20.01.2019 16:10 0.9 C 83 % 1017.2 hPa 0.0 mm 0.3 km/h NO 54 0 min 0.0 UV-I 44.0 W/m 0.9 C 1.6 km/h
20.01.2019 16:00 1.1 C 83 % 1017.1 hPa 0.0 mm 0.6 km/h NO 54 0 min 0.0 UV-I 56.0 W/m 1.1 C 3.2 km/h
20.01.2019 15:50 1.2 C 81 % 1017.1 hPa 0.0 mm 2.2 km/h NO 54 0 min 0.0 UV-I 69.0 W/m 1.2 C 4.8 km/h
20.01.2019 15:40 1.3 C 81 % 1017.1 hPa 0.0 mm 0.7 km/h NO 54 0 min 0.0 UV-I 81.0 W/m 1.3 C 3.2 km/h
20.01.2019 15:30 1.2 C 81 % 1017.0 hPa 0.0 mm 0.7 km/h NO 54 0 min 0.0 UV-I 95.0 W/m 1.2 C 3.2 km/h
20.01.2019 15:20 1.3 C 81 % 1017.0 hPa 0.0 mm 0.5 km/h NO 54 0 min 0.0 UV-I 111.0 W/m 1.3 C 3.2 km/h
20.01.2019 15:10 1.2 C 81 % 1017.0 hPa 0.0 mm 1.8 km/h NO 54 0 min 0.0 UV-I 125.0 W/m 1.2 C 4.8 km/h
20.01.2019 15:00 1.1 C 81 % 1016.9 hPa 0.0 mm 0.4 km/h NO 54 0 min 0.0 UV-I 127.0 W/m 1.1 C 3.2 km/h
20.01.2019 14:50 1.2 C 81 % 1016.9 hPa 0.0 mm 0.1 km/h NO 54 0 min 0.0 UV-I 118.0 W/m 1.2 C 1.6 km/h
20.01.2019 14:40 1.1 C 81 % 1016.9 hPa 0.0 mm 0.0 km/h NO 54 0 min 0.0 UV-I 132.0 W/m 1.1 C 1.6 km/h
20.01.2019 14:30 1.1 C 81 % 1016.9 hPa 0.0 mm 0.0 km/h NO 54 0 min 0.0 UV-I 128.0 W/m 1.1 C 1.6 km/h
20.01.2019 14:20 0.9 C 81 % 1016.9 hPa 0.0 mm 1.3 km/h NO 54 0 min 0.0 UV-I 146.0 W/m 0.9 C 3.2 km/h
20.01.2019 14:10 1.1 C 82 % 1017.0 hPa 0.0 mm 1.0 km/h NO 54 0 min 0.5 UV-I 169.0 W/m 1.1 C 3.2 km/h
20.01.2019 14:00 0.8 C 81 % 1017.0 hPa 0.0 mm 1.0 km/h NO 54 0 min 0.5 UV-I 190.0 W/m 0.8 C 3.2 km/h
20.01.2019 13:50 0.9 C 82 % 1017.1 hPa 0.0 mm 0.1 km/h NO 54 10 min 0.6 UV-I 207.0 W/m 0.9 C 1.6 km/h
20.01.2019 13:40 0.5 C 83 % 1017.1 hPa 0.0 mm 0.3 km/h NO 54 10 min 0.6 UV-I 221.0 W/m 0.5 C 3.2 km/h
20.01.2019 13:30 0.3 C 83 % 1017.2 hPa 0.0 mm 0.5 km/h NO 54 0 min 0.6 UV-I 199.0 W/m 0.3 C 3.2 km/h
20.01.2019 13:20 0.1 C 84 % 1017.2 hPa 0.0 mm 0.3 km/h NO 54 0 min 0.6 UV-I 183.0 W/m 0.1 C 3.2 km/h
20.01.2019 13:10 -0.1 C 84 % 1017.3 hPa 0.0 mm 1.4 km/h NO 54 0 min 0.6 UV-I 195.0 W/m -0.1 C 4.8 km/h
20.01.2019 13:00 -0.1 C 86 % 1017.4 hPa 0.0 mm 2.0 km/h NO 54 10 min 0.6 UV-I 216.0 W/m -0.1 C 4.8 km/h
20.01.2019 12:50 -0.4 C 85 % 1017.4 hPa 0.0 mm 1.5 km/h NW 311 10 min 0.7 UV-I 234.0 W/m -0.4 C 4.8 km/h
20.01.2019 12:40 -0.3 C 86 % 1017.5 hPa 0.0 mm 1.2 km/h NW 311 10 min 0.7 UV-I 230.0 W/m -0.3 C 4.8 km/h
20.01.2019 12:30 -0.7 C 87 % 1017.5 hPa 0.0 mm 2.1 km/h NW 311 0 min 0.7 UV-I 214.0 W/m -0.7 C 4.8 km/h
20.01.2019 12:20 -0.8 C 87 % 1017.5 hPa 0.0 mm 1.9 km/h NW 311 10 min 0.7 UV-I 214.0 W/m -0.8 C 4.8 km/h
20.01.2019 12:10 -0.7 C 89 % 1017.5 hPa 0.0 mm 0.1 km/h O 84 10 min 0.7 UV-I 230.0 W/m -0.7 C 1.6 km/h
20.01.2019 12:00 -1.3 C 90 % 1017.6 hPa 0.0 mm 1.8 km/h O 84 10 min 0.7 UV-I 278.0 W/m -1.3 C 3.2 km/h
20.01.2019 11:50 -1.8 C 90 % 1017.6 hPa 0.0 mm 0.8 km/h O 84 10 min 0.7 UV-I 320.0 W/m -1.8 C 3.2 km/h
20.01.2019 11:40 -1.9 C 91 % 1017.7 hPa 0.0 mm 0.0 km/h O 84 10 min 0.6 UV-I 221.0 W/m -1.9 C 0.0 km/h
20.01.2019 11:30 -2.1 C 92 % 1017.7 hPa 0.0 mm 0.0 km/h O 84 0 min 0.5 UV-I 181.0 W/m -2.1 C 0.0 km/h
20.01.2019 11:20 -2.4 C 92 % 1017.8 hPa 0.0 mm 0.0 km/h O 84 0 min 0.0 UV-I 130.0 W/m -2.4 C 0.0 km/h
20.01.2019 11:10 -2.8 C 92 % 1017.7 hPa 0.0 mm 0.0 km/h O 84 0 min 0.0 UV-I 107.0 W/m -2.8 C 0.0 km/h
20.01.2019 11:00 -2.9 C 92 % 1017.7 hPa 0.0 mm 0.0 km/h O 84 0 min 0.0 UV-I 114.0 W/m -2.9 C 0.0 km/h
20.01.2019 10:50 -2.9 C 93 % 1017.7 hPa 0.0 mm 0.0 km/h O 84 0 min 0.0 UV-I 90.0 W/m -2.9 C 0.0 km/h
20.01.2019 10:40 -3.1 C 93 % 1017.6 hPa 0.0 mm 0.0 km/h O 84 0 min 0.0 UV-I 72.0 W/m -3.1 C 0.0 km/h
20.01.2019 10:30 -3.2 C 93 % 1017.6 hPa 0.0 mm 0.0 km/h O 84 0 min 0.0 UV-I 98.0 W/m -3.2 C 0.0 km/h
20.01.2019 10:20 -3.3 C 93 % 1017.5 hPa 0.0 mm 0.0 km/h O 84 0 min 0.0 UV-I 49.0 W/m -3.3 C 0.0 km/h
20.01.2019 10:10 -3.4 C 93 % 1017.3 hPa 0.0 mm 0.0 km/h O 84 0 min 0.0 UV-I 33.0 W/m -3.4 C 0.0 km/h
20.01.2019 10:00 -3.5 C 94 % 1017.2 hPa 0.0 mm 0.0 km/h O 84 0 min 0.0 UV-I 25.0 W/m -3.5 C 0.0 km/h
20.01.2019 09:50 -3.7 C 94 % 1017.2 hPa 0.0 mm 0.0 km/h O 84 0 min 0.0 UV-I 42.0 W/m -3.7 C 0.0 km/h
20.01.2019 09:40 -3.8 C 94 % 1017.1 hPa 0.0 mm 0.0 km/h O 84 0 min 0.0 UV-I 51.0 W/m -3.8 C 0.0 km/h
20.01.2019 09:30 -4.0 C 94 % 1017.1 hPa 0.0 mm 0.0 km/h O 84 0 min 0.0 UV-I 44.0 W/m -4.0 C 0.0 km/h
20.01.2019 09:20 -4.1 C 94 % 1017.0 hPa 0.0 mm 0.0 km/h O 84 0 min 0.0 UV-I 18.0 W/m -4.1 C 0.0 km/h
20.01.2019 09:10 -4.3 C 94 % 1016.9 hPa 0.0 mm 0.0 km/h O 84 0 min 0.0 UV-I 19.0 W/m -4.3 C 0.0 km/h
20.01.2019 09:00 -4.3 C 94 % 1016.9 hPa 0.0 mm 0.0 km/h O 84 0 min 0.0 UV-I 25.0 W/m -4.3 C 0.0 km/h
20.01.2019 08:50 -4.4 C 94 % 1016.8 hPa 0.0 mm 0.0 km/h O 84 0 min 0.0 UV-I 18.0 W/m -4.4 C 0.0 km/h
20.01.2019 08:40 -4.6 C 94 % 1016.8 hPa 0.0 mm 0.0 km/h O 84 0 min 0.0 UV-I 18.0 W/m -4.6 C 0.0 km/h
20.01.2019 08:30 -4.9 C 94 % 1016.7 hPa 0.0 mm 0.0 km/h O 84 0 min 0.0 UV-I 12.0 W/m -4.9 C 0.0 km/h
20.01.2019 08:20 -5.1 C 94 % 1016.6 hPa 0.0 mm 0.0 km/h O 84 0 min 0.0 UV-I 9.0 W/m -5.1 C 0.0 km/h
20.01.2019 08:10 -5.2 C 94 % 1016.5 hPa 0.0 mm 0.0 km/h O 84 0 min 0.0 UV-I 0.0 W/m -5.2 C 0.0 km/h
20.01.2019 08:00 -5.2 C 94 % 1016.4 hPa 0.0 mm 0.0 km/h O 84 0 min 0.0 UV-I 0.0 W/m -5.2 C 0.0 km/h
20.01.2019 07:50 -5.3 C 94 % 1016.3 hPa 0.0 mm 0.0 km/h O 84 0 min 0.0 UV-I 0.0 W/m -5.3 C 0.0 km/h
20.01.2019 07:40 -5.3 C 94 % 1016.3 hPa 0.0 mm 0.0 km/h O 84 0 min 0.0 UV-I 0.0 W/m -5.3 C 0.0 km/h
20.01.2019 07:30 -5.3 C 94 % 1016.3 hPa 0.0 mm 0.0 km/h O 84 0 min 0.0 UV-I 0.0 W/m -5.3 C 0.0 km/h
20.01.2019 07:20 -5.4 C 94 % 1016.3 hPa 0.0 mm 0.0 km/h O 84 0 min 0.0 UV-I 0.0 W/m -5.4 C 0.0 km/h
20.01.2019 07:10 -5.5 C 94 % 1016.2 hPa 0.0 mm 0.0 km/h O 84 0 min 0.0 UV-I 0.0 W/m -5.5 C 0.0 km/h
20.01.2019 07:00 -5.4 C 94 % 1016.1 hPa 0.0 mm 0.0 km/h O 84 0 min 0.0 UV-I 0.0 W/m -5.4 C 0.0 km/h
20.01.2019 06:50 -5.6 C 94 % 1016.1 hPa 0.0 mm 0.0 km/h O 84 0 min 0.0 UV-I 0.0 W/m -5.6 C 0.0 km/h
20.01.2019 06:40 -5.4 C 94 % 1016.1 hPa 0.0 mm 0.0 km/h O 84 0 min 0.0 UV-I 0.0 W/m -5.4 C 0.0 km/h
20.01.2019 06:30 -5.4 C 94 % 1016.1 hPa 0.0 mm 0.0 km/h O 84 0 min 0.0 UV-I 0.0 W/m -5.4 C 0.0 km/h
20.01.2019 06:20 -5.3 C 94 % 1016.0 hPa 0.0 mm 0.0 km/h O 84 0 min 0.0 UV-I 0.0 W/m -5.3 C 0.0 km/h
20.01.2019 06:10 -5.3 C 93 % 1016.0 hPa 0.0 mm 0.0 km/h O 84 0 min 0.0 UV-I 0.0 W/m -5.3 C 0.0 km/h
20.01.2019 06:00 -5.1 C 94 % 1016.0 hPa 0.0 mm 0.0 km/h O 84 0 min 0.0 UV-I 0.0 W/m -5.1 C 0.0 km/h
20.01.2019 05:50 -5.1 C 94 % 1016.0 hPa 0.0 mm 0.0 km/h O 84 0 min 0.0 UV-I 0.0 W/m -5.1 C 0.0 km/h
20.01.2019 05:40 -4.9 C 93 % 1015.9 hPa 0.0 mm 0.0 km/h O 84 0 min 0.0 UV-I 0.0 W/m -4.9 C 0.0 km/h
20.01.2019 05:30 -4.8 C 93 % 1015.9 hPa 0.0 mm 0.0 km/h O 84 0 min 0.0 UV-I 0.0 W/m -4.8 C 0.0 km/h
20.01.2019 05:20 -4.7 C 94 % 1016.0 hPa 0.0 mm 0.0 km/h O 84 0 min 0.0 UV-I 0.0 W/m -4.7 C 0.0 km/h
20.01.2019 05:10 -4.6 C 94 % 1016.1 hPa 0.0 mm 0.0 km/h O 84 0 min 0.0 UV-I 0.0 W/m -4.6 C 0.0 km/h
20.01.2019 05:00 -4.4 C 93 % 1016.2 hPa 0.0 mm 0.0 km/h O 84 0 min 0.0 UV-I 0.0 W/m -4.4 C 0.0 km/h
20.01.2019 04:50 -4.3 C 93 % 1016.1 hPa 0.0 mm 0.0 km/h O 84 0 min 0.0 UV-I 0.0 W/m -4.3 C 0.0 km/h
20.01.2019 04:40 -4.2 C 94 % 1016.1 hPa 0.0 mm 0.0 km/h O 84 0 min 0.0 UV-I 0.0 W/m -4.2 C 0.0 km/h
20.01.2019 04:30 -4.2 C 94 % 1016.2 hPa 0.0 mm 0.0 km/h O 84 0 min 0.0 UV-I 0.0 W/m -4.2 C 0.0 km/h
20.01.2019 04:20 -4.2 C 94 % 1016.2 hPa 0.0 mm 0.0 km/h O 84 0 min 0.0 UV-I 0.0 W/m -4.2 C 0.0 km/h
20.01.2019 04:10 -4.2 C 94 % 1016.3 hPa 0.0 mm 0.0 km/h O 84 0 min 0.0 UV-I 0.0 W/m -4.2 C 0.0 km/h
20.01.2019 04:00 -4.1 C 94 % 1016.3 hPa 0.0 mm 0.0 km/h O 84 0 min 0.0 UV-I 0.0 W/m -4.1 C 0.0 km/h
20.01.2019 03:50 -4.1 C 93 % 1016.4 hPa 0.0 mm 0.0 km/h O 84 0 min 0.0 UV-I 0.0 W/m -4.1 C 0.0 km/h
20.01.2019 03:40 -4.1 C 94 % 1016.3 hPa 0.0 mm 0.0 km/h O 84 0 min 0.0 UV-I 0.0 W/m -4.1 C 0.0 km/h
20.01.2019 03:30 -4.2 C 94 % 1016.4 hPa 0.0 mm 0.0 km/h O 84 0 min 0.0 UV-I 0.0 W/m -4.2 C 0.0 km/h
20.01.2019 03:20 -4.2 C 94 % 1016.4 hPa 0.0 mm 0.0 km/h O 84 0 min 0.0 UV-I 0.0 W/m -4.2 C 0.0 km/h
20.01.2019 03:10 -4.2 C 94 % 1016.3 hPa 0.0 mm 0.0 km/h O 84 0 min 0.0 UV-I 0.0 W/m -4.2 C 0.0 km/h
20.01.2019 03:00 -4.2 C 94 % 1016.4 hPa 0.0 mm 0.0 km/h O 84 0 min 0.0 UV-I 0.0 W/m -4.2 C 0.0 km/h
_ Min-Zeit 06:50 14:00 05:30 - 03:00 - - - - - 06:50 03:00
Minimum _ -5.6 C 81 % 1015.9 hPa - 0.0 km/h - - - - - -5.6 C 0.0 km/h
_ Max-Zeit 15:20 01:50 02:40 03:00 21:30 - - 11:40 11:50 11:50 15:20 21:20
Maximum _ 1.3 C 95 % 1020.6 hPa 0.0 mm 3.2 km/h
O-NO
- - 10 min 0.7 UV-I 320.0 W/m 1.3 C 6.4 km/h
O-NO
Durchschnitt _ -1.9 C 91 % 1017.8 hPa #0.0 mm 0.3 km/h O-NO - #0 min. 0.0 UV-I 0.0 W/m -1.9 C 1.2 km/h